sensor_id;sensor_type;location;lat;lon;timestamp;temperature;humidity
38938;DHT22;24727;51.974;20.868;2023-05-09T00:02:03;4.90;1.00
38938;DHT22;24727;51.974;20.868;2023-05-09T00:04:29;4.80;1.00
38938;DHT22;24727;51.974;20.868;2023-05-09T00:06:56;4.80;1.00
38938;DHT22;24727;51.974;20.868;2023-05-09T00:09:28;4.70;1.00
38938;DHT22;24727;51.974;20.868;2023-05-09T00:11:54;4.70;1.00
38938;DHT22;24727;51.974;20.868;2023-05-09T00:14:20;4.60;1.00
38938;DHT22;24727;51.974;20.868;2023-05-09T00:16:46;4.60;1.00
38938;DHT22;24727;51.974;20.868;2023-05-09T00:19:13;4.60;1.00
38938;DHT22;24727;51.974;20.868;2023-05-09T00:21:39;4.50;1.00
38938;DHT22;24727;51.974;20.868;2023-05-09T00:24:06;4.50;1.00
38938;DHT22;24727;51.974;20.868;2023-05-09T00:26:32;4.40;1.00
38938;DHT22;24727;51.974;20.868;2023-05-09T00:28:58;4.40;1.00
38938;DHT22;24727;51.974;20.868;2023-05-09T00:31:24;4.40;1.00
38938;DHT22;24727;51.974;20.868;2023-05-09T00:33:53;4.30;1.00
38938;DHT22;24727;51.974;20.868;2023-05-09T00:36:20;4.30;1.00
38938;DHT22;24727;51.974;20.868;2023-05-09T00:38:53;4.30;1.00
38938;DHT22;24727;51.974;20.868;2023-05-09T00:41:19;4.20;1.00
38938;DHT22;24727;51.974;20.868;2023-05-09T00:43:47;4.20;1.00
38938;DHT22;24727;51.974;20.868;2023-05-09T00:46:15;4.30;1.00
38938;DHT22;24727;51.974;20.868;2023-05-09T00:48:41;4.20;1.00
38938;DHT22;24727;51.974;20.868;2023-05-09T00:51:07;4.20;1.00
38938;DHT22;24727;51.974;20.868;2023-05-09T00:53:33;4.10;1.00
38938;DHT22;24727;51.974;20.868;2023-05-09T00:55:59;4.10;1.00
38938;DHT22;24727;51.974;20.868;2023-05-09T00:58:26;4.10;1.00
38938;DHT22;24727;51.974;20.868;2023-05-09T01:03:29;4.10;1.00
38938;DHT22;24727;51.974;20.868;2023-05-09T01:08:53;3.90;1.00
38938;DHT22;24727;51.974;20.868;2023-05-09T01:11:35;3.80;1.00
38938;DHT22;24727;51.974;20.868;2023-05-09T01:14:10;3.70;1.00
38938;DHT22;24727;51.974;20.868;2023-05-09T01:19:30;3.60;1.00
38938;DHT22;24727;51.974;20.868;2023-05-09T01:22:06;3.60;1.00
38938;DHT22;24727;51.974;20.868;2023-05-09T01:27:32;3.50;1.00
38938;DHT22;24727;51.974;20.868;2023-05-09T01:30:04;3.60;1.00
38938;DHT22;24727;51.974;20.868;2023-05-09T01:32:34;3.50;1.00
38938;DHT22;24727;51.974;20.868;2023-05-09T01:35:04;3.40;1.00
38938;DHT22;24727;51.974;20.868;2023-05-09T01:37:32;3.40;1.00
38938;DHT22;24727;51.974;20.868;2023-05-09T01:40:03;3.30;1.00
38938;DHT22;24727;51.974;20.868;2023-05-09T01:42:43;3.30;1.00
38938;DHT22;24727;51.974;20.868;2023-05-09T01:45:11;3.30;1.00
38938;DHT22;24727;51.974;20.868;2023-05-09T01:47:41;3.20;1.00
38938;DHT22;24727;51.974;20.868;2023-05-09T01:50:10;3.30;1.00
38938;DHT22;24727;51.974;20.868;2023-05-09T01:52:39;3.10;1.00
38938;DHT22;24727;51.974;20.868;2023-05-09T01:55:12;3.20;1.00
38938;DHT22;24727;51.974;20.868;2023-05-09T01:57:39;3.20;1.00
38938;DHT22;24727;51.974;20.868;2023-05-09T02:00:08;3.00;1.00
38938;DHT22;24727;51.974;20.868;2023-05-09T02:02:35;3.00;1.00
38938;DHT22;24727;51.974;20.868;2023-05-09T02:05:02;3.00;1.00
38938;DHT22;24727;51.974;20.868;2023-05-09T02:07:28;3.10;1.00
38938;DHT22;24727;51.974;20.868;2023-05-09T02:09:55;3.00;1.00
38938;DHT22;24727;51.974;20.868;2023-05-09T02:12:23;3.00;1.00
38938;DHT22;24727;51.974;20.868;2023-05-09T02:14:49;2.90;1.00
38938;DHT22;24727;51.974;20.868;2023-05-09T02:17:15;2.80;1.00
38938;DHT22;24727;51.974;20.868;2023-05-09T02:19:43;2.90;1.00
38938;DHT22;24727;51.974;20.868;2023-05-09T02:22:11;2.90;1.00
38938;DHT22;24727;51.974;20.868;2023-05-09T02:24:37;2.90;1.00
38938;DHT22;24727;51.974;20.868;2023-05-09T02:27:04;2.90;1.00
38938;DHT22;24727;51.974;20.868;2023-05-09T02:29:39;3.00;1.00
38938;DHT22;24727;51.974;20.868;2023-05-09T02:32:13;2.90;1.00
38938;DHT22;24727;51.974;20.868;2023-05-09T02:34:41;2.90;1.00
38938;DHT22;24727;51.974;20.868;2023-05-09T02:37:08;2.80;1.00
38938;DHT22;24727;51.974;20.868;2023-05-09T02:39:35;2.80;1.00
38938;DHT22;24727;51.974;20.868;2023-05-09T02:42:07;2.80;1.00
38938;DHT22;24727;51.974;20.868;2023-05-09T02:44:35;2.80;1.00
38938;DHT22;24727;51.974;20.868;2023-05-09T02:47:03;2.80;1.00
38938;DHT22;24727;51.974;20.868;2023-05-09T02:49:30;2.70;1.00
38938;DHT22;24727;51.974;20.868;2023-05-09T02:51:57;2.60;1.00
38938;DHT22;24727;51.974;20.868;2023-05-09T02:54:24;2.70;1.00
38938;DHT22;24727;51.974;20.868;2023-05-09T02:56:50;2.80;1.00
38938;DHT22;24727;51.974;20.868;2023-05-09T02:59:17;2.80;1.00
38938;DHT22;24727;51.974;20.868;2023-05-09T03:01:44;2.80;1.00
38938;DHT22;24727;51.974;20.868;2023-05-09T03:04:11;2.80;1.00
38938;DHT22;24727;51.974;20.868;2023-05-09T03:06:37;2.70;1.00
38938;DHT22;24727;51.974;20.868;2023-05-09T03:09:03;2.60;1.00
38938;DHT22;24727;51.974;20.868;2023-05-09T03:11:31;2.50;1.00
38938;DHT22;24727;51.974;20.868;2023-05-09T03:13:58;2.40;1.00
38938;DHT22;24727;51.974;20.868;2023-05-09T03:16:24;2.40;1.00
38938;DHT22;24727;51.974;20.868;2023-05-09T03:18:50;2.40;1.00
38938;DHT22;24727;51.974;20.868;2023-05-09T03:21:16;2.40;1.00
38938;DHT22;24727;51.974;20.868;2023-05-09T03:23:42;2.40;1.00
38938;DHT22;24727;51.974;20.868;2023-05-09T03:26:08;2.50;1.00
38938;DHT22;24727;51.974;20.868;2023-05-09T03:28:34;2.50;1.00
38938;DHT22;24727;51.974;20.868;2023-05-09T03:31:00;2.60;1.00
38938;DHT22;24727;51.974;20.868;2023-05-09T03:33:27;2.70;1.00
38938;DHT22;24727;51.974;20.868;2023-05-09T03:35:53;2.70;1.00
38938;DHT22;24727;51.974;20.868;2023-05-09T03:38:19;2.80;1.00
38938;DHT22;24727;51.974;20.868;2023-05-09T03:40:45;2.80;1.00
38938;DHT22;24727;51.974;20.868;2023-05-09T03:43:12;2.80;1.00
38938;DHT22;24727;51.974;20.868;2023-05-09T03:45:38;2.90;1.00
38938;DHT22;24727;51.974;20.868;2023-05-09T03:48:06;2.90;1.00
38938;DHT22;24727;51.974;20.868;2023-05-09T03:50:35;2.90;1.00
38938;DHT22;24727;51.974;20.868;2023-05-09T03:53:01;3.00;1.00
38938;DHT22;24727;51.974;20.868;2023-05-09T03:55:27;3.00;1.00
38938;DHT22;24727;51.974;20.868;2023-05-09T03:57:54;3.10;1.00
38938;DHT22;24727;51.974;20.868;2023-05-09T04:00:20;3.20;1.00
38938;DHT22;24727;51.974;20.868;2023-05-09T04:02:47;3.30;1.00
38938;DHT22;24727;51.974;20.868;2023-05-09T04:05:14;3.50;1.00
38938;DHT22;24727;51.974;20.868;2023-05-09T04:07:41;3.60;1.00
38938;DHT22;24727;51.974;20.868;2023-05-09T04:10:10;3.70;1.00
38938;DHT22;24727;51.974;20.868;2023-05-09T04:12:36;3.80;1.00
38938;DHT22;24727;51.974;20.868;2023-05-09T04:15:04;3.80;1.00
38938;DHT22;24727;51.974;20.868;2023-05-09T04:17:30;3.80;1.00
38938;DHT22;24727;51.974;20.868;2023-05-09T04:19:56;3.80;1.00
38938;DHT22;24727;51.974;20.868;2023-05-09T04:22:22;4.00;1.00
38938;DHT22;24727;51.974;20.868;2023-05-09T04:24:48;4.10;1.00
38938;DHT22;24727;51.974;20.868;2023-05-09T04:27:16;4.30;1.00
38938;DHT22;24727;51.974;20.868;2023-05-09T04:29:42;4.40;1.00
38938;DHT22;24727;51.974;20.868;2023-05-09T04:32:08;4.50;1.00
38938;DHT22;24727;51.974;20.868;2023-05-09T04:34:35;4.60;1.00
38938;DHT22;24727;51.974;20.868;2023-05-09T04:37:01;4.80;1.00
38938;DHT22;24727;51.974;20.868;2023-05-09T04:39:27;5.00;1.00
38938;DHT22;24727;51.974;20.868;2023-05-09T04:41:53;5.20;1.00
38938;DHT22;24727;51.974;20.868;2023-05-09T04:44:20;5.40;1.00
38938;DHT22;24727;51.974;20.868;2023-05-09T04:46:48;5.60;1.00
38938;DHT22;24727;51.974;20.868;2023-05-09T04:49:15;5.80;1.00
38938;DHT22;24727;51.974;20.868;2023-05-09T04:51:42;6.00;1.00
38938;DHT22;24727;51.974;20.868;2023-05-09T04:54:08;6.20;1.00
38938;DHT22;24727;51.974;20.868;2023-05-09T04:56:35;6.30;1.00
38938;DHT22;24727;51.974;20.868;2023-05-09T04:59:02;6.50;1.00
38938;DHT22;24727;51.974;20.868;2023-05-09T05:01:28;6.70;1.00
38938;DHT22;24727;51.974;20.868;2023-05-09T05:03:54;6.90;1.00
38938;DHT22;24727;51.974;20.868;2023-05-09T05:06:20;7.00;1.00
38938;DHT22;24727;51.974;20.868;2023-05-09T05:08:46;7.20;1.00
38938;DHT22;24727;51.974;20.868;2023-05-09T05:11:13;7.30;1.00
38938;DHT22;24727;51.974;20.868;2023-05-09T05:13:39;7.50;1.00
38938;DHT22;24727;51.974;20.868;2023-05-09T05:16:05;7.70;1.00
38938;DHT22;24727;51.974;20.868;2023-05-09T05:18:31;7.90;1.00
38938;DHT22;24727;51.974;20.868;2023-05-09T05:21:03;8.10;1.00
38938;DHT22;24727;51.974;20.868;2023-05-09T05:23:29;8.30;1.00
38938;DHT22;24727;51.974;20.868;2023-05-09T05:25:57;8.60;1.00
38938;DHT22;24727;51.974;20.868;2023-05-09T05:28:23;8.80;1.00
38938;DHT22;24727;51.974;20.868;2023-05-09T05:30:51;9.00;1.00
38938;DHT22;24727;51.974;20.868;2023-05-09T05:33:18;9.20;1.00
38938;DHT22;24727;51.974;20.868;2023-05-09T05:35:45;9.40;1.00
38938;DHT22;24727;51.974;20.868;2023-05-09T05:38:11;9.70;1.00
38938;DHT22;24727;51.974;20.868;2023-05-09T05:40:37;9.90;1.00
38938;DHT22;24727;51.974;20.868;2023-05-09T05:43:03;10.10;1.00
38938;DHT22;24727;51.974;20.868;2023-05-09T05:45:31;10.30;1.00
38938;DHT22;24727;51.974;20.868;2023-05-09T05:47:56;10.60;1.00
38938;DHT22;24727;51.974;20.868;2023-05-09T05:50:23;10.90;1.00
38938;DHT22;24727;51.974;20.868;2023-05-09T05:52:50;11.00;1.00
38938;DHT22;24727;51.974;20.868;2023-05-09T05:55:16;11.30;1.00
38938;DHT22;24727;51.974;20.868;2023-05-09T05:57:43;11.60;1.00
38938;DHT22;24727;51.974;20.868;2023-05-09T06:00:09;11.70;1.00
38938;DHT22;24727;51.974;20.868;2023-05-09T06:02:37;11.80;1.00
38938;DHT22;24727;51.974;20.868;2023-05-09T06:05:03;12.20;1.00
38938;DHT22;24727;51.974;20.868;2023-05-09T06:07:32;12.50;1.00
38938;DHT22;24727;51.974;20.868;2023-05-09T06:09:58;12.70;1.00
38938;DHT22;24727;51.974;20.868;2023-05-09T06:12:24;12.90;1.00
38938;DHT22;24727;51.974;20.868;2023-05-09T06:14:50;13.20;1.00
38938;DHT22;24727;51.974;20.868;2023-05-09T06:17:22;13.50;1.00
38938;DHT22;24727;51.974;20.868;2023-05-09T06:19:48;13.60;1.00
38938;DHT22;24727;51.974;20.868;2023-05-09T06:22:16;13.70;1.00
38938;DHT22;24727;51.974;20.868;2023-05-09T06:24:42;13.90;1.00
38938;DHT22;24727;51.974;20.868;2023-05-09T06:27:08;13.80;1.00
38938;DHT22;24727;51.974;20.868;2023-05-09T06:29:33;13.70;1.00
38938;DHT22;24727;51.974;20.868;2023-05-09T06:31:59;13.90;1.00
38938;DHT22;24727;51.974;20.868;2023-05-09T06:34:25;14.10;1.00
38938;DHT22;24727;51.974;20.868;2023-05-09T06:36:51;14.40;1.00
38938;DHT22;24727;51.974;20.868;2023-05-09T06:39:17;14.30;1.00
38938;DHT22;24727;51.974;20.868;2023-05-09T06:41:45;14.50;1.00
38938;DHT22;24727;51.974;20.868;2023-05-09T06:44:13;15.00;1.00
38938;DHT22;24727;51.974;20.868;2023-05-09T06:46:39;15.50;1.00
38938;DHT22;24727;51.974;20.868;2023-05-09T06:49:05;15.40;1.00
38938;DHT22;24727;51.974;20.868;2023-05-09T06:51:32;15.50;1.00
38938;DHT22;24727;51.974;20.868;2023-05-09T06:53:58;15.30;1.00
38938;DHT22;24727;51.974;20.868;2023-05-09T06:56:25;15.40;1.00
38938;DHT22;24727;51.974;20.868;2023-05-09T06:58:52;15.60;1.00
38938;DHT22;24727;51.974;20.868;2023-05-09T07:01:18;16.00;1.00
38938;DHT22;24727;51.974;20.868;2023-05-09T07:03:44;16.00;1.00
38938;DHT22;24727;51.974;20.868;2023-05-09T07:06:14;16.00;1.00
38938;DHT22;24727;51.974;20.868;2023-05-09T07:08:42;16.40;1.00
38938;DHT22;24727;51.974;20.868;2023-05-09T07:11:11;16.60;1.00
38938;DHT22;24727;51.974;20.868;2023-05-09T07:13:38;16.20;1.00
38938;DHT22;24727;51.974;20.868;2023-05-09T07:16:04;16.60;1.00
38938;DHT22;24727;51.974;20.868;2023-05-09T07:18:30;16.90;1.00
38938;DHT22;24727;51.974;20.868;2023-05-09T07:20:56;17.10;1.00
38938;DHT22;24727;51.974;20.868;2023-05-09T07:23:22;16.90;1.00
38938;DHT22;24727;51.974;20.868;2023-05-09T07:25:58;16.70;1.00
38938;DHT22;24727;51.974;20.868;2023-05-09T07:28:24;16.50;1.00
38938;DHT22;24727;51.974;20.868;2023-05-09T07:30:54;16.30;1.00
38938;DHT22;24727;51.974;20.868;2023-05-09T07:33:21;16.60;1.00
38938;DHT22;24727;51.974;20.868;2023-05-09T07:35:47;16.70;1.00
38938;DHT22;24727;51.974;20.868;2023-05-09T07:38:14;17.00;1.00
38938;DHT22;24727;51.974;20.868;2023-05-09T07:40:41;16.90;1.00
38938;DHT22;24727;51.974;20.868;2023-05-09T07:43:09;17.10;1.00
38938;DHT22;24727;51.974;20.868;2023-05-09T07:45:36;17.00;1.00
38938;DHT22;24727;51.974;20.868;2023-05-09T07:48:04;17.10;1.00
38938;DHT22;24727;51.974;20.868;2023-05-09T07:50:30;16.90;1.00
38938;DHT22;24727;51.974;20.868;2023-05-09T07:52:56;17.30;1.00
38938;DHT22;24727;51.974;20.868;2023-05-09T07:55:22;17.60;1.00
38938;DHT22;24727;51.974;20.868;2023-05-09T07:57:48;17.80;1.00
38938;DHT22;24727;51.974;20.868;2023-05-09T08:00:14;18.10;1.00
38938;DHT22;24727;51.974;20.868;2023-05-09T08:02:41;18.20;1.00
38938;DHT22;24727;51.974;20.868;2023-05-09T08:05:07;18.30;1.00
38938;DHT22;24727;51.974;20.868;2023-05-09T08:07:37;18.60;1.00
38938;DHT22;24727;51.974;20.868;2023-05-09T08:10:04;18.20;1.00
38938;DHT22;24727;51.974;20.868;2023-05-09T08:12:31;18.40;1.00
38938;DHT22;24727;51.974;20.868;2023-05-09T08:14:58;18.90;1.00
38938;DHT22;24727;51.974;20.868;2023-05-09T08:17:25;18.80;1.00
38938;DHT22;24727;51.974;20.868;2023-05-09T08:19:51;18.60;1.00
38938;DHT22;24727;51.974;20.868;2023-05-09T08:22:17;19.00;1.00
38938;DHT22;24727;51.974;20.868;2023-05-09T08:24:45;19.30;1.00
38938;DHT22;24727;51.974;20.868;2023-05-09T08:27:12;18.90;1.00
38938;DHT22;24727;51.974;20.868;2023-05-09T08:29:39;18.90;1.00
38938;DHT22;24727;51.974;20.868;2023-05-09T08:32:05;18.80;1.00
38938;DHT22;24727;51.974;20.868;2023-05-09T08:34:31;19.00;1.00
38938;DHT22;24727;51.974;20.868;2023-05-09T08:37:03;19.20;1.00
38938;DHT22;24727;51.974;20.868;2023-05-09T08:39:32;19.30;1.00
38938;DHT22;24727;51.974;20.868;2023-05-09T08:42:00;19.50;1.00
38938;DHT22;24727;51.974;20.868;2023-05-09T08:44:29;19.70;1.00
38938;DHT22;24727;51.974;20.868;2023-05-09T08:46:58;19.20;1.00
38938;DHT22;24727;51.974;20.868;2023-05-09T08:49:26;18.70;1.00
38938;DHT22;24727;51.974;20.868;2023-05-09T08:51:54;18.80;1.00
38938;DHT22;24727;51.974;20.868;2023-05-09T08:54:22;19.20;1.00
38938;DHT22;24727;51.974;20.868;2023-05-09T08:56:52;19.40;1.00
38938;DHT22;24727;51.974;20.868;2023-05-09T08:59:19;19.10;1.00
38938;DHT22;24727;51.974;20.868;2023-05-09T09:01:45;19.50;1.00
38938;DHT22;24727;51.974;20.868;2023-05-09T09:04:11;20.50;1.00
38938;DHT22;24727;51.974;20.868;2023-05-09T09:06:38;20.00;1.00
38938;DHT22;24727;51.974;20.868;2023-05-09T09:09:06;20.10;1.00
38938;DHT22;24727;51.974;20.868;2023-05-09T09:11:35;20.10;1.00
38938;DHT22;24727;51.974;20.868;2023-05-09T09:14:11;20.20;1.00
38938;DHT22;24727;51.974;20.868;2023-05-09T09:16:43;20.20;1.00
38938;DHT22;24727;51.974;20.868;2023-05-09T09:19:11;20.60;1.00
38938;DHT22;24727;51.974;20.868;2023-05-09T09:21:40;20.10;1.00
38938;DHT22;24727;51.974;20.868;2023-05-09T09:24:08;20.40;1.00
38938;DHT22;24727;51.974;20.868;2023-05-09T09:26:45;20.50;1.00
38938;DHT22;24727;51.974;20.868;2023-05-09T09:29:12;20.10;1.00
38938;DHT22;24727;51.974;20.868;2023-05-09T09:31:43;19.90;1.00
38938;DHT22;24727;51.974;20.868;2023-05-09T09:34:10;20.70;1.00
38938;DHT22;24727;51.974;20.868;2023-05-09T09:36:37;20.60;1.00
38938;DHT22;24727;51.974;20.868;2023-05-09T09:39:04;20.80;1.00
38938;DHT22;24727;51.974;20.868;2023-05-09T09:41:35;21.10;1.00
38938;DHT22;24727;51.974;20.868;2023-05-09T09:44:15;20.90;1.00
38938;DHT22;24727;51.974;20.868;2023-05-09T09:46:51;20.50;1.00
38938;DHT22;24727;51.974;20.868;2023-05-09T09:49:22;20.10;1.00
38938;DHT22;24727;51.974;20.868;2023-05-09T09:51:53;20.40;1.00
38938;DHT22;24727;51.974;20.868;2023-05-09T09:54:21;20.50;1.00
38938;DHT22;24727;51.974;20.868;2023-05-09T09:56:49;20.80;1.00
38938;DHT22;24727;51.974;20.868;2023-05-09T09:59:20;21.20;1.00
38938;DHT22;24727;51.974;20.868;2023-05-09T10:04:24;20.80;1.00
38938;DHT22;24727;51.974;20.868;2023-05-09T10:07:00;20.80;1.00
38938;DHT22;24727;51.974;20.868;2023-05-09T10:09:33;21.70;1.00
38938;DHT22;24727;51.974;20.868;2023-05-09T10:12:04;21.80;1.00
38938;DHT22;24727;51.974;20.868;2023-05-09T10:14:32;21.40;1.00
38938;DHT22;24727;51.974;20.868;2023-05-09T10:17:00;20.90;1.00
38938;DHT22;24727;51.974;20.868;2023-05-09T10:19:28;21.30;1.00
38938;DHT22;24727;51.974;20.868;2023-05-09T10:22:04;21.80;1.00
38938;DHT22;24727;51.974;20.868;2023-05-09T10:24:38;22.20;1.00
38938;DHT22;24727;51.974;20.868;2023-05-09T10:27:10;22.00;1.00
38938;DHT22;24727;51.974;20.868;2023-05-09T10:30:03;22.70;1.00
38938;DHT22;24727;51.974;20.868;2023-05-09T10:35:07;21.90;1.00
38938;DHT22;24727;51.974;20.868;2023-05-09T10:37:34;22.30;1.00
38938;DHT22;24727;51.974;20.868;2023-05-09T10:40:03;23.10;1.00
38938;DHT22;24727;51.974;20.868;2023-05-09T10:42:30;24.20;1.00
38938;DHT22;24727;51.974;20.868;2023-05-09T10:44:56;23.60;1.00
38938;DHT22;24727;51.974;20.868;2023-05-09T10:47:25;23.10;1.00
38938;DHT22;24727;51.974;20.868;2023-05-09T10:49:53;23.10;1.00
38938;DHT22;24727;51.974;20.868;2023-05-09T10:52:23;23.50;1.00
38938;DHT22;24727;51.974;20.868;2023-05-09T10:55:03;23.50;1.00
38938;DHT22;24727;51.974;20.868;2023-05-09T10:57:30;23.10;1.00
38938;DHT22;24727;51.974;20.868;2023-05-09T10:59:58;22.90;1.00
38938;DHT22;24727;51.974;20.868;2023-05-09T11:02:25;23.90;1.00
38938;DHT22;24727;51.974;20.868;2023-05-09T11:05:18;23.40;1.00
38938;DHT22;24727;51.974;20.868;2023-05-09T11:07:45;23.50;1.00
38938;DHT22;24727;51.974;20.868;2023-05-09T11:10:17;24.20;1.00
38938;DHT22;24727;51.974;20.868;2023-05-09T11:12:53;24.00;1.00
38938;DHT22;24727;51.974;20.868;2023-05-09T11:15:21;23.50;1.00
38938;DHT22;24727;51.974;20.868;2023-05-09T11:18:06;24.60;1.00
38938;DHT22;24727;51.974;20.868;2023-05-09T11:20:34;24.50;1.00
38938;DHT22;24727;51.974;20.868;2023-05-09T11:23:03;23.80;1.00
38938;DHT22;24727;51.974;20.868;2023-05-09T11:25:29;23.10;1.00
38938;DHT22;24727;51.974;20.868;2023-05-09T11:28:01;23.00;1.00
38938;DHT22;24727;51.974;20.868;2023-05-09T11:30:40;22.40;1.00
38938;DHT22;24727;51.974;20.868;2023-05-09T11:33:22;21.10;1.00
38938;DHT22;24727;51.974;20.868;2023-05-09T11:36:18;21.40;1.00
38938;DHT22;24727;51.974;20.868;2023-05-09T11:38:48;21.80;1.00
38938;DHT22;24727;51.974;20.868;2023-05-09T11:41:25;22.90;1.00
38938;DHT22;24727;51.974;20.868;2023-05-09T11:43:51;22.60;1.00
38938;DHT22;24727;51.974;20.868;2023-05-09T11:46:20;23.20;1.00
38938;DHT22;24727;51.974;20.868;2023-05-09T11:48:47;22.80;1.00
38938;DHT22;24727;51.974;20.868;2023-05-09T11:51:17;22.20;1.00
38938;DHT22;24727;51.974;20.868;2023-05-09T11:53:48;21.60;1.00
38938;DHT22;24727;51.974;20.868;2023-05-09T11:56:14;21.10;1.00
38938;DHT22;24727;51.974;20.868;2023-05-09T11:58:41;21.90;1.00
38938;DHT22;24727;51.974;20.868;2023-05-09T12:01:10;22.70;1.00
38938;DHT22;24727;51.974;20.868;2023-05-09T12:03:44;23.00;1.00
38938;DHT22;24727;51.974;20.868;2023-05-09T12:06:15;22.80;1.00
38938;DHT22;24727;51.974;20.868;2023-05-09T12:08:46;23.00;1.00
38938;DHT22;24727;51.974;20.868;2023-05-09T12:11:13;23.70;1.00
38938;DHT22;24727;51.974;20.868;2023-05-09T12:13:50;23.70;1.00
38938;DHT22;24727;51.974;20.868;2023-05-09T12:16:18;23.50;1.00
38938;DHT22;24727;51.974;20.868;2023-05-09T12:18:51;24.20;1.00
38938;DHT22;24727;51.974;20.868;2023-05-09T12:21:19;25.10;1.00
38938;DHT22;24727;51.974;20.868;2023-05-09T12:23:46;24.90;1.00
38938;DHT22;24727;51.974;20.868;2023-05-09T12:26:12;24.40;1.00
38938;DHT22;24727;51.974;20.868;2023-05-09T12:28:39;23.90;1.00
38938;DHT22;24727;51.974;20.868;2023-05-09T12:31:06;24.30;1.00
38938;DHT22;24727;51.974;20.868;2023-05-09T12:33:33;23.00;1.00
38938;DHT22;24727;51.974;20.868;2023-05-09T12:36:11;23.50;1.00
38938;DHT22;24727;51.974;20.868;2023-05-09T12:38:38;23.60;1.00
38938;DHT22;24727;51.974;20.868;2023-05-09T12:41:07;23.80;1.00
38938;DHT22;24727;51.974;20.868;2023-05-09T12:43:36;23.50;1.00
38938;DHT22;24727;51.974;20.868;2023-05-09T12:46:03;23.40;1.00
38938;DHT22;24727;51.974;20.868;2023-05-09T12:48:33;23.20;1.00
38938;DHT22;24727;51.974;20.868;2023-05-09T12:51:06;23.00;1.00
38938;DHT22;24727;51.974;20.868;2023-05-09T12:53:40;23.00;1.00
38938;DHT22;24727;51.974;20.868;2023-05-09T12:56:18;22.50;1.00
38938;DHT22;24727;51.974;20.868;2023-05-09T12:58:54;22.70;1.00
38938;DHT22;24727;51.974;20.868;2023-05-09T13:01:22;22.50;1.00
38938;DHT22;24727;51.974;20.868;2023-05-09T13:04:02;22.70;1.00
38938;DHT22;24727;51.974;20.868;2023-05-09T13:06:29;22.10;1.00
38938;DHT22;24727;51.974;20.868;2023-05-09T13:09:01;22.70;1.00
38938;DHT22;24727;51.974;20.868;2023-05-09T13:11:29;22.40;1.00
38938;DHT22;24727;51.974;20.868;2023-05-09T13:13:56;21.60;1.00
38938;DHT22;24727;51.974;20.868;2023-05-09T13:16:23;21.50;1.00
38938;DHT22;24727;51.974;20.868;2023-05-09T13:18:49;21.70;1.00
38938;DHT22;24727;51.974;20.868;2023-05-09T13:21:21;21.80;1.00
38938;DHT22;24727;51.974;20.868;2023-05-09T13:23:47;22.20;1.00
38938;DHT22;24727;51.974;20.868;2023-05-09T13:26:14;21.60;1.00
38938;DHT22;24727;51.974;20.868;2023-05-09T13:28:40;21.60;1.00
38938;DHT22;24727;51.974;20.868;2023-05-09T13:31:07;21.50;1.00
38938;DHT22;24727;51.974;20.868;2023-05-09T13:33:34;21.80;1.00
38938;DHT22;24727;51.974;20.868;2023-05-09T13:36:00;21.90;1.00
38938;DHT22;24727;51.974;20.868;2023-05-09T13:38:26;22.60;1.00
38938;DHT22;24727;51.974;20.868;2023-05-09T13:40:55;22.70;1.00
38938;DHT22;24727;51.974;20.868;2023-05-09T13:43:22;23.20;1.00
38938;DHT22;24727;51.974;20.868;2023-05-09T13:45:48;22.90;1.00
38938;DHT22;24727;51.974;20.868;2023-05-09T13:48:14;22.40;1.00
38938;DHT22;24727;51.974;20.868;2023-05-09T13:50:41;22.60;1.00
38938;DHT22;24727;51.974;20.868;2023-05-09T13:53:08;22.00;1.00
38938;DHT22;24727;51.974;20.868;2023-05-09T13:55:35;21.50;1.00
38938;DHT22;24727;51.974;20.868;2023-05-09T13:58:01;21.60;1.00
38938;DHT22;24727;51.974;20.868;2023-05-09T14:00:34;21.40;1.00
38938;DHT22;24727;51.974;20.868;2023-05-09T14:03:00;21.20;1.00
38938;DHT22;24727;51.974;20.868;2023-05-09T14:05:29;21.60;1.00
38938;DHT22;24727;51.974;20.868;2023-05-09T14:07:56;21.80;1.00
38938;DHT22;24727;51.974;20.868;2023-05-09T14:10:22;21.90;1.00
38938;DHT22;24727;51.974;20.868;2023-05-09T14:12:50;21.80;1.00
38938;DHT22;24727;51.974;20.868;2023-05-09T14:15:18;21.20;1.00
38938;DHT22;24727;51.974;20.868;2023-05-09T14:17:44;21.50;1.00
38938;DHT22;24727;51.974;20.868;2023-05-09T14:20:11;20.30;1.00
38938;DHT22;24727;51.974;20.868;2023-05-09T14:22:37;20.00;1.00
38938;DHT22;24727;51.974;20.868;2023-05-09T14:25:04;19.50;1.00
38938;DHT22;24727;51.974;20.868;2023-05-09T14:27:31;19.70;1.00
38938;DHT22;24727;51.974;20.868;2023-05-09T14:29:56;19.90;1.00
38938;DHT22;24727;51.974;20.868;2023-05-09T14:32:24;20.10;1.00
38938;DHT22;24727;51.974;20.868;2023-05-09T14:34:50;19.70;1.00
38938;DHT22;24727;51.974;20.868;2023-05-09T14:37:16;20.10;1.00
38938;DHT22;24727;51.974;20.868;2023-05-09T14:39:42;20.20;1.00
38938;DHT22;24727;51.974;20.868;2023-05-09T14:42:09;20.20;1.00
38938;DHT22;24727;51.974;20.868;2023-05-09T14:44:39;20.10;1.00
38938;DHT22;24727;51.974;20.868;2023-05-09T14:47:07;20.30;1.00
38938;DHT22;24727;51.974;20.868;2023-05-09T14:49:33;20.00;1.00
38938;DHT22;24727;51.974;20.868;2023-05-09T14:51:59;20.00;1.00
38938;DHT22;24727;51.974;20.868;2023-05-09T14:54:25;20.30;1.00
38938;DHT22;24727;51.974;20.868;2023-05-09T14:56:51;20.00;1.00
38938;DHT22;24727;51.974;20.868;2023-05-09T14:59:18;19.80;1.00
38938;DHT22;24727;51.974;20.868;2023-05-09T15:01:44;20.30;1.00
38938;DHT22;24727;51.974;20.868;2023-05-09T15:04:13;20.50;1.00
38938;DHT22;24727;51.974;20.868;2023-05-09T15:06:39;19.70;1.00
38938;DHT22;24727;51.974;20.868;2023-05-09T15:09:06;19.60;1.00
38938;DHT22;24727;51.974;20.868;2023-05-09T15:11:32;19.20;1.00
38938;DHT22;24727;51.974;20.868;2023-05-09T15:13:58;18.90;1.00
38938;DHT22;24727;51.974;20.868;2023-05-09T15:16:24;18.90;1.00
38938;DHT22;24727;51.974;20.868;2023-05-09T15:18:53;18.90;1.00
38938;DHT22;24727;51.974;20.868;2023-05-09T15:21:19;19.60;1.00
38938;DHT22;24727;51.974;20.868;2023-05-09T15:23:46;18.90;1.00
38938;DHT22;24727;51.974;20.868;2023-05-09T15:26:12;18.60;1.00
38938;DHT22;24727;51.974;20.868;2023-05-09T15:28:39;18.40;1.00
38938;DHT22;24727;51.974;20.868;2023-05-09T15:31:05;18.30;1.00
38938;DHT22;24727;51.974;20.868;2023-05-09T15:33:33;18.10;1.00
38938;DHT22;24727;51.974;20.868;2023-05-09T15:35:59;18.00;1.00
38938;DHT22;24727;51.974;20.868;2023-05-09T15:38:26;18.40;1.00
38938;DHT22;24727;51.974;20.868;2023-05-09T15:40:58;18.10;1.00
38938;DHT22;24727;51.974;20.868;2023-05-09T15:43:24;18.00;1.00
38938;DHT22;24727;51.974;20.868;2023-05-09T15:45:50;18.40;1.00
38938;DHT22;24727;51.974;20.868;2023-05-09T15:48:17;18.20;1.00
38938;DHT22;24727;51.974;20.868;2023-05-09T15:50:43;17.90;1.00
38938;DHT22;24727;51.974;20.868;2023-05-09T15:53:10;17.90;1.00
38938;DHT22;24727;51.974;20.868;2023-05-09T15:55:36;18.10;1.00
38938;DHT22;24727;51.974;20.868;2023-05-09T15:58:03;18.30;1.00